Celine — HBEF — position and weather

sailwx.info

Track history (hours):
 
Tides and Currents Weather Stations Pressure Air Temp Water Temp Dewpoint Dewpoint Depression Visibility Wind Speed Wind Dir Waves Ship Positions

Celine

Last reported at 2015-Jul-29 10:07 UTC. Time now 2015-Jul-31 01:06 UTC.
Position N 29°21' W 094°42'.

Length 129 m; draft 6.2 m.

Type: Cargo ship. MMSI: 269057000.

Date/timePositionNaut miles runAvg speedWind from/ knotsBaromVisibWave heightAir tempDewpointWater temp
2015-Jul-29 10:07N 29°21' W 094°42'610.1
2015-Jul-29 09:33N 29°22' W 094°48'10 9.9
2015-Jul-29 08:34N 29°31' W 094°53'1211.5
2015-Jul-29 07:33N 29°41' W 094°59'7 7.1
2015-Jul-29 06:34N 29°44' W 095°06'6 6.3
2015-Jul-29 05:33N 29°44' W 095°14'2 0.1
2015-Jul-28 01:15N 29°44' W 095°16'3 4.8
2015-Jul-28 00:33N 29°44' W 095°13'6 6.4
2015-Jul-27 23:33N 29°45' W 095°06'9 8.5
2015-Jul-27 22:33N 29°40' W 094°58'1111.4
2015-Jul-27 21:33N 29°30' W 094°52'  
2015-Jul-23 09:33N 25°44' W 079°32'1110.6
2015-Jul-23 08:33N 25°54' W 079°31'1010.3
2015-Jul-23 07:32N 26°03' W 079°25'1211.7
2015-Jul-23 06:33N 26°10' W 079°15'1812.7
2015-Jul-23 05:10N 26°13' W 078°55'1013.0
2015-Jul-23 04:23N 26°12' W 078°44'1112.9
2015-Jul-23 03:31N 26°09' W 078°32'1313.5
2015-Jul-23 02:33N 26°06' W 078°18'  
Track history (hours):
 
Tides and Currents Weather Stations Pressure Air Temp Water Temp Dewpoint Dewpoint Depression Visibility Wind Speed Wind Dir Waves Ship Positions

Celine

Last reported at 2015-Jul-29 10:07 UTC. Time now 2015-Jul-31 01:06 UTC.
Position N 29°21' W 094°42'.

Length 129 m; draft 6.2 m.

Type: Cargo ship. MMSI: 269057000.

Date/timePositionNaut miles runAvg speedWind from/ knotsBaromVisibWave heightAir tempDewpointWater temp
2015-Jul-29 10:07N 29°21' W 094°42'610.1
2015-Jul-29 09:33N 29°22' W 094°48'10 9.9
2015-Jul-29 08:34N 29°31' W 094°53'1211.5
2015-Jul-29 07:33N 29°41' W 094°59'7 7.1
2015-Jul-29 06:34N 29°44' W 095°06'6 6.3
2015-Jul-29 05:33N 29°44' W 095°14'2 0.1
2015-Jul-28 01:15N 29°44' W 095°16'3 4.8
2015-Jul-28 00:33N 29°44' W 095°13'6 6.4
2015-Jul-27 23:33N 29°45' W 095°06'9 8.5
2015-Jul-27 22:33N 29°40' W 094°58'1111.4
2015-Jul-27 21:33N 29°30' W 094°52'  
2015-Jul-23 09:33N 25°44' W 079°32'1110.6
2015-Jul-23 08:33N 25°54' W 079°31'1010.3
2015-Jul-23 07:32N 26°03' W 079°25'1211.7
2015-Jul-23 06:33N 26°10' W 079°15'1812.7
2015-Jul-23 05:10N 26°13' W 078°55'1013.0
2015-Jul-23 04:23N 26°12' W 078°44'1112.9
2015-Jul-23 03:31N 26°09' W 078°32'1313.5
2015-Jul-23 02:33N 26°06' W 078°18'  

Dump ship's entire track history